Time;durP1;ratioP1;P1;durP2;ratioP2;P2;SDS_P1;SDS_P2;PMS_P1;PMS_P2;Temp;Humidity;BMP_temperature;BMP_pressure;BME280_temperature;BME280_humidity;BME280_pressure;Samples;Min_cycle;Max_cycle;Signal;HPM_P1;HPM_P2
2023/05/05 07:57:07;;;;;;;1.52;0.95;;;;;;;15.51;44.98;100904.25;1751338;78;21182;-59
2023/05/05 07:59:37;;;;;;;2.58;1.20;;;;;;;15.51;45.29;100909.77;1729420;81;21118;-57
2023/05/05 08:02:05;;;;;;;3.05;1.07;;;;;;;15.52;45.51;100912.84;1729741;82;21063;-57
2023/05/05 08:04:36;;;;;;;1.85;1.40;;;;;;;15.55;45.82;100914.33;1729786;83;21045;-57
2023/05/05 08:07:05;;;;;;;3.77;1.40;;;;;;;15.61;46.57;100912.67;1729642;81;21094;-57
2023/05/05 08:09:35;;;;;;;6.33;1.67;;;;;;;15.78;46.57;100902.82;1729619;83;21360;-57
2023/05/05 08:12:04;;;;;;;2.60;1.50;;;;;;;16.00;45.94;100911.10;1729604;81;21050;-58
2023/05/05 08:14:33;;;;;;;4.42;1.60;;;;;;;16.06;45.71;100920.42;1729409;81;21007;-57
2023/05/05 08:17:02;;;;;;;4.37;1.87;;;;;;;16.13;45.48;100917.94;1730528;81;21088;-59
2023/05/05 08:19:30;;;;;;;2.25;1.20;;;;;;;16.28;45.42;100919.58;1715221;83;21043;-58
2023/05/05 08:22:00;;;;;;;5.92;1.40;;;;;;;16.48;45.24;100899.02;1720911;82;21027;-58
2023/05/05 08:24:29;;;;;;;6.03;1.65;;;;;;;16.68;44.75;100905.80;1713245;84;21130;-58
2023/05/05 08:26:58;;;;;;;4.60;1.40;;;;;;;16.87;44.32;100899.78;1719952;83;21534;-58
2023/05/05 08:29:27;;;;;;;1.85;1.30;;;;;;;17.06;43.30;100905.70;1750464;82;21093;-58
2023/05/05 08:31:55;;;;;;;3.17;1.25;;;;;;;17.15;42.40;100911.79;1750766;82;21022;-59
2023/05/05 08:34:24;;;;;;;3.37;1.42;;;;;;;17.13;42.62;100907.02;1767464;80;20959;-57
2023/05/05 08:36:55;;;;;;;3.77;1.37;;;;;;;17.28;42.01;100911.65;1781689;80;20960;-59
2023/05/05 08:39:24;;;;;;;1.87;1.50;;;;;;;17.49;41.81;100911.73;1781222;80;21003;-58
2023/05/05 08:41:53;;;;;;;2.27;1.60;;;;;;;17.53;41.44;100901.04;1781616;80;20995;-58
2023/05/05 08:44:22;;;;;;;2.12;1.32;;;;;;;17.66;41.59;100903.68;1781584;80;21030;-58
2023/05/05 08:46:51;;;;;;;2.60;1.52;;;;;;;17.76;40.33;100902.63;1781718;80;20999;-59
2023/05/05 08:49:20;;;;;;;4.50;1.70;;;;;;;17.89;39.69;100902.45;1781317;80;21469;-60
2023/05/05 08:51:48;;;;;;;2.05;1.32;;;;;;;18.02;39.60;100895.34;1792416;80;21392;-59
2023/05/05 08:54:20;;;;;;;3.30;1.55;;;;;;;17.98;38.75;100891.34;1797680;80;21063;-58
2023/05/05 08:56:50;;;;;;;5.55;2.30;;;;;;;17.87;39.22;100896.84;1797668;80;21083;-60
2023/05/05 08:59:22;;;;;;;3.65;1.40;;;;;;;17.82;38.88;100897.53;1796907;79;21047;-60
2023/05/05 09:01:51;;;;;;;2.95;1.40;;;;;;;17.72;38.24;100901.40;1797677;80;21035;-61
2023/05/05 09:04:20;;;;;;;1.72;1.22;;;;;;;17.53;38.27;100889.42;1797351;80;20976;-58
2023/05/05 09:06:50;;;;;;;2.17;1.17;;;;;;;17.45;39.48;100911.89;1797742;80;21009;-58
2023/05/05 09:09:19;;;;;;;2.12;1.27;;;;;;;17.42;39.81;100894.34;1778122;80;21460;-60
2023/05/05 09:11:47;;;;;;;3.30;1.50;;;;;;;17.49;40.49;100892.88;1797261;80;21059;-57
2023/05/05 09:14:16;;;;;;;3.87;1.02;;;;;;;17.52;39.93;100892.42;1797668;79;21087;-59
2023/05/05 09:16:45;;;;;;;3.02;1.40;;;;;;;17.57;39.75;100898.14;1797065;80;21423;-57
2023/05/05 09:19:13;;;;;;;4.40;1.42;;;;;;;17.64;39.46;100901.68;1797267;80;21429;-60
2023/05/05 09:21:51;;;;;;;1.85;1.40;;;;;;;17.71;39.52;100895.55;1797906;80;21477;-58
2023/05/05 09:24:20;;;;;;;2.40;1.52;;;;;;;17.72;39.05;100893.08;1797269;80;20980;-59
2023/05/05 09:26:49;;;;;;;2.27;1.50;;;;;;;17.69;38.92;100890.77;1781546;80;20991;-57
2023/05/05 09:29:21;;;;;;;1.67;1.10;;;;;;;17.72;37.96;100888.38;1781179;80;20983;-60
2023/05/05 09:32:07;;;;;;;2.60;1.32;;;;;;;17.66;38.75;100888.44;1781489;80;21575;-58
2023/05/05 09:34:34;;;;;;;2.45;1.25;;;;;;;17.66;38.58;100882.89;1781499;80;21483;-57
2023/05/05 09:37:04;;;;;;;3.92;1.27;;;;;;;17.69;38.38;100878.30;1781381;80;21474;-58
2023/05/05 09:39:33;;;;;;;4.08;1.70;;;;;;;17.64;38.57;100872.58;1781509;80;21062;-59
2023/05/05 09:42:04;;;;;;;5.47;1.60;;;;;;;17.65;38.33;100870.12;1781244;80;21066;-59
2023/05/05 09:44:39;;;;;;;4.78;1.52;;;;;;;17.68;38.15;100872.45;1781647;80;21449;-58
2023/05/05 09:47:08;;;;;;;3.22;1.90;;;;;;;17.72;38.24;100869.52;1781287;80;21030;-60
2023/05/05 09:49:39;;;;;;;5.72;2.90;;;;;;;17.72;37.74;100873.14;1779148;80;21681;-58
2023/05/05 09:52:14;;;;;;;3.70;1.52;;;;;;;17.70;37.08;100877.23;1781610;80;21019;-59
2023/05/05 09:54:43;;;;;;;2.95;1.57;;;;;;;17.63;37.40;100883.36;1781424;80;20988;-59
2023/05/05 09:57:31;;;;;;;3.72;1.37;;;;;;;17.57;37.16;100880.13;1781254;80;21484;-58
2023/05/05 10:00:00;;;;;;;3.67;1.30;;;;;;;17.53;37.09;100873.33;1781425;79;21489;-58
2023/05/05 10:02:35;;;;;;;5.50;1.80;;;;;;;17.43;36.98;100868.33;1781469;80;21027;-58
2023/05/05 10:05:08;;;;;;;2.17;1.35;;;;;;;17.38;37.41;100875.11;1781047;80;21427;-60
2023/05/05 10:07:39;;;;;;;3.35;1.57;;;;;;;17.35;36.80;100870.03;1785304;79;21361;-58
2023/05/05 10:10:14;;;;;;;4.08;1.65;;;;;;;17.30;36.85;100862.95;1778060;79;21048;-58
2023/05/05 10:12:48;;;;;;;2.55;1.60;;;;;;;17.32;36.68;100866.33;1813846;79;21003;-57
2023/05/05 10:15:16;;;;;;;2.80;1.40;;;;;;;17.30;36.95;100876.26;1807714;79;21051;-59
2023/05/05 10:17:47;;;;;;;3.10;1.30;;;;;;;17.24;36.68;100868.88;1713282;83;21548;-57
2023/05/05 10:20:18;;;;;;;3.25;1.47;;;;;;;17.21;36.67;100856.87;1711801;83;21048;-58
2023/05/05 10:22:52;;;;;;;2.08;1.15;;;;;;;17.23;35.95;100855.25;1713097;84;21036;-58
2023/05/05 10:25:28;;;;;;;3.33;1.30;;;;;;;17.24;36.42;100852.25;1739001;82;21545;-57
2023/05/05 10:27:59;;;;;;;2.02;1.27;;;;;;;17.29;35.49;100857.95;1744156;81;21090;-59
2023/05/05 10:30:32;;;;;;;2.98;1.40;;;;;;;17.32;34.64;100861.64;1743346;82;21280;-58
2023/05/05 10:33:16;;;;;;;2.00;1.10;;;;;;;17.30;34.71;100858.25;1739676;82;21111;-60
2023/05/05 10:35:46;;;;;;;3.02;1.10;;;;;;;17.23;34.28;100847.80;1737492;82;21074;-58
2023/05/05 10:38:15;;;;;;;4.22;1.30;;;;;;;17.14;34.36;100856.63;1739355;82;21510;-57
2023/05/05 10:40:47;;;;;;;2.12;1.60;;;;;;;17.06;34.96;100855.02;1741102;81;22262;-60
2023/05/05 10:43:16;;;;;;;2.15;1.45;;;;;;;17.08;35.38;100848.17;1819394;79;20999;-56
2023/05/05 10:45:45;;;;;;;2.75;1.25;;;;;;;17.11;35.32;100844.09;1819446;79;21442;-56
2023/05/05 10:48:20;;;;;;;1.87;1.35;;;;;;;17.16;35.60;100844.25;1819633;79;20967;-57
2023/05/05 10:50:52;;;;;;;2.20;1.65;;;;;;;17.18;35.44;100839.33;1818565;79;21062;-56
2023/05/05 10:53:32;;;;;;;2.40;1.42;;;;;;;17.20;35.50;100849.64;1819064;79;20991;-56
2023/05/05 10:56:25;;;;;;;4.80;2.00;;;;;;;17.20;35.64;100834.41;1819363;79;21007;-57
2023/05/05 10:58:54;;;;;;;2.02;1.45;;;;;;;17.11;36.03;100844.09;1819366;79;21030;-57
2023/05/05 11:01:32;;;;;;;2.98;1.50;;;;;;;17.16;36.25;100844.25;1803096;79;21130;-55
2023/05/05 11:04:18;;;;;;;2.37;1.22;;;;;;;17.19;36.15;100825.79;1803733;79;21471;-57
2023/05/05 11:07:11;;;;;;;4.20;1.30;;;;;;;17.16;36.07;100830.95;1721069;79;21031;-57
2023/05/05 11:09:55;;;;;;;1.90;1.15;;;;;;;17.12;36.15;100826.41;1803701;79;20985;-56
2023/05/05 11:12:24;;;;;;;4.67;1.45;;;;;;;17.23;35.79;100831.17;1803934;79;21063;-56
2023/05/05 11:15:32;;;;;;;1.95;1.30;;;;;;;17.27;35.47;100831.02;1797440;79;21439;-55
2023/05/05 11:18:01;;;;;;;3.77;1.30;;;;;;;17.30;35.44;100829.17;1714475;84;21083;-58
2023/05/05 11:20:42;;;;;;;3.90;1.20;;;;;;;17.35;35.52;100821.02;1762591;81;21467;-57
2023/05/05 11:23:20;;;;;;;2.75;1.37;;;;;;;17.38;35.36;100819.16;1759561;81;21056;-58
2023/05/05 11:25:52;;;;;;;5.75;1.37;;;;;;;17.32;35.47;100810.94;1743790;81;21051;-55
2023/05/05 11:28:24;;;;;;;5.95;1.67;;;;;;;17.21;35.65;100811.71;1771968;81;21504;-56
2023/05/05 11:31:01;;;;;;;3.02;1.35;;;;;;;17.21;36.12;100800.09;1771746;81;21038;-56
2023/05/05 11:33:36;;;;;;;2.70;1.37;;;;;;;17.33;35.83;100813.47;1771858;81;22233;-58
2023/05/05 11:36:09;;;;;;;3.22;1.57;;;;;;;17.41;36.02;100804.84;1743713;81;21047;-56
2023/05/05 11:39:08;;;;;;;4.33;1.35;;;;;;;17.48;35.42;100806.69;1771619;81;20987;-57
2023/05/05 11:42:19;;;;;;;3.80;1.50;;;;;;;17.56;35.81;100810.02;1771852;81;21026;-57
2023/05/05 11:44:48;;;;;;;1.92;1.50;;;;;;;17.65;36.05;100806.37;1772006;81;21058;-57
2023/05/05 11:47:23;;;;;;;2.85;1.30;;;;;;;17.71;36.17;100803.55;1771569;81;21078;-56
2023/05/05 11:49:54;;;;;;;2.85;1.30;;;;;;;17.69;35.59;100808.47;1771906;81;21082;-57
2023/05/05 11:52:24;;;;;;;1.57;1.12;;;;;;;17.65;35.83;100803.61;1771827;81;21073;-56
2023/05/05 11:54:57;;;;;;;2.62;1.50;;;;;;;17.65;35.97;100809.15;1744441;81;21030;-55
2023/05/05 11:57:27;;;;;;;3.20;1.90;;;;;;;17.62;35.59;100795.76;1771584;81;21050;-57
2023/05/05 12:00:00;;;;;;;2.87;2.00;;;;;;;17.53;36.08;100797.13;1779419;79;21453;-57
2023/05/05 12:02:30;;;;;;;3.42;1.62;;;;;;;17.48;35.91;100799.22;1797795;80;21517;-56
2023/05/05 12:05:00;;;;;;;2.90;1.60;;;;;;;17.41;35.98;100795.69;1797622;80;21007;-56
2023/05/05 12:07:32;;;;;;;1.35;1.15;;;;;;;17.30;35.82;100795.94;1797603;79;21040;-57
2023/05/05 12:10:03;;;;;;;2.87;1.27;;;;;;;17.19;36.51;100788.41;1797403;80;21012;-56
2023/05/05 12:12:36;;;;;;;2.45;1.20;;;;;;;17.14;36.29;100797.95;1797551;80;21461;-57
2023/05/05 12:15:08;;;;;;;2.37;1.45;;;;;;;17.00;36.55;100797.25;1793348;80;21040;-56
2023/05/05 12:17:43;;;;;;;3.35;1.15;;;;;;;16.94;36.73;100791.25;1721241;82;21031;-57
2023/05/05 12:20:14;;;;;;;2.83;1.57;;;;;;;16.90;36.74;100780.84;1721318;82;21111;-57
2023/05/05 12:22:43;;;;;;;1.85;1.15;;;;;;;16.90;36.80;100775.30;1760491;81;21188;-56
2023/05/05 12:25:13;;;;;;;1.92;1.50;;;;;;;16.89;36.77;100776.37;1789221;79;21062;-57
2023/05/05 12:27:42;;;;;;;4.78;1.98;;;;;;;16.88;36.80;100769.16;1780064;79;21047;-57
2023/05/05 12:30:16;;;;;;;4.10;2.27;;;;;;;16.87;37.10;100773.84;1753658;79;21051;-59
2023/05/05 12:32:45;;;;;;;1.50;1.32;;;;;;;16.93;36.46;100767.95;1806068;79;21034;-58
2023/05/05 12:35:15;;;;;;;1.90;1.30;;;;;;;16.96;36.74;100768.34;1805782;79;21039;-57
2023/05/05 12:37:45;;;;;;;5.03;1.50;;;;;;;17.01;35.73;100763.50;1806223;79;20996;-56
2023/05/05 12:40:47;;;;;;;3.60;1.52;;;;;;;17.03;35.43;100761.34;1806115;79;21469;-59
2023/05/05 12:43:32;;;;;;;1.07;0.90;;;;;;;17.08;35.96;100755.41;1806104;79;21008;-57
2023/05/05 12:46:09;;;;;;;1.67;1.00;;;;;;;17.14;34.18;100748.64;1806236;79;21461;-56
2023/05/05 12:48:40;;;;;;;1.42;1.02;;;;;;;17.15;34.14;100758.10;1806070;79;21610;-56
2023/05/05 12:51:21;;;;;;;4.10;1.55;;;;;;;17.17;33.67;100754.56;1778900;79;21027;-58
2023/05/05 12:54:08;;;;;;;2.00;1.27;;;;;;;17.15;33.83;100750.33;1780001;79;21071;-56
2023/05/05 12:56:43;;;;;;;2.15;1.20;;;;;;;17.09;33.84;100746.56;1806052;79;21157;-58
2023/05/05 12:59:24;;;;;;;2.17;1.20;;;;;;;17.05;33.71;100737.03;1805779;79;21047;-58
2023/05/05 13:01:55;;;;;;;3.20;1.30;;;;;;;17.00;34.16;100744.66;1808877;79;21451;-57
2023/05/05 13:04:27;;;;;;;5.85;1.52;;;;;;;16.99;34.80;100737.42;1806515;79;21258;-56
2023/05/05 13:07:13;;;;;;;2.17;1.45;;;;;;;17.02;35.15;100744.42;1805949;79;21463;-56
2023/05/05 13:09:43;;;;;;;2.00;1.22;;;;;;;17.10;34.59;100741.34;1805903;79;21043;-57
2023/05/05 13:12:13;;;;;;;3.45;1.40;;;;;;;17.08;34.87;100736.03;1805914;79;21453;-57
2023/05/05 13:14:42;;;;;;;2.60;1.27;;;;;;;17.09;34.50;100734.11;1805043;79;22249;-57
2023/05/05 13:17:11;;;;;;;3.80;1.50;;;;;;;17.09;34.70;100743.80;1720777;82;21495;-58
2023/05/05 13:19:41;;;;;;;2.10;1.30;;;;;;;17.11;34.04;100740.26;1787151;80;21011;-57
2023/05/05 13:22:12;;;;;;;4.42;1.40;;;;;;;17.09;34.27;100743.80;1720481;82;21150;-58
2023/05/05 13:24:41;;;;;;;2.10;1.30;;;;;;;17.06;33.93;100732.66;1748655;80;21023;-57
2023/05/05 13:27:12;;;;;;;3.90;1.10;;;;;;;17.06;34.06;100739.58;1749788;82;21589;-59
2023/05/05 13:29:42;;;;;;;2.85;1.22;;;;;;;17.10;33.52;100734.42;1751207;82;21016;-57
2023/05/05 13:32:11;;;;;;;1.85;1.30;;;;;;;17.16;33.12;100739.56;1751345;81;21095;-59
2023/05/05 13:34:41;;;;;;;3.02;1.30;;;;;;;17.17;32.78;100733.80;1751537;81;21003;-57
2023/05/05 13:37:10;;;;;;;1.90;1.20;;;;;;;17.21;32.73;100737.78;1751398;82;21019;-57
2023/05/05 13:39:39;;;;;;;5.03;2.50;;;;;;;17.27;32.62;100736.85;1751202;81;21083;-57
2023/05/05 13:42:09;;;;;;;3.05;1.65;;;;;;;17.31;32.86;100735.84;1751368;81;21059;-59
2023/05/05 13:44:38;;;;;;;2.65;1.45;;;;;;;17.33;32.91;100733.69;1724170;82;21477;-56
2023/05/05 13:47:08;;;;;;;3.27;1.20;;;;;;;17.34;32.74;100738.14;1751270;82;20987;-58
2023/05/05 13:49:37;;;;;;;1.90;0.90;;;;;;;17.36;32.98;100728.52;1751492;81;21492;-56
2023/05/05 13:52:07;;;;;;;2.45;1.45;;;;;;;17.40;32.87;100733.05;1751093;82;21082;-56
2023/05/05 13:54:36;;;;;;;1.67;1.12;;;;;;;17.41;32.35;100734.20;1751679;82;21032;-56
2023/05/05 13:57:06;;;;;;;2.60;1.40;;;;;;;17.38;32.24;100743.52;1751209;82;20995;-58
2023/05/05 13:59:36;;;;;;;2.42;1.40;;;;;;;17.35;32.67;100737.06;1751207;82;21087;-57
2023/05/05 14:02:05;;;;;;;3.37;2.15;;;;;;;17.29;32.43;100733.31;1751456;82;21043;-59
2023/05/05 14:04:36;;;;;;;2.05;1.40;;;;;;;17.21;32.70;100725.32;1751251;82;21019;-58
2023/05/05 14:07:05;;;;;;;3.42;1.20;;;;;;;17.17;32.93;100726.87;1751291;82;21007;-60
2023/05/05 14:09:34;;;;;;;3.52;2.08;;;;;;;17.17;33.42;100728.25;1751159;82;21523;-57
2023/05/05 14:12:04;;;;;;;2.15;1.20;;;;;;;17.19;32.89;100722.48;1751460;81;21478;-58
2023/05/05 14:14:34;;;;;;;4.22;1.65;;;;;;;17.20;33.15;100723.63;1750747;81;21081;-58
2023/05/05 14:17:03;;;;;;;3.00;1.35;;;;;;;17.25;33.38;100718.23;1752911;82;21051;-58
2023/05/05 14:19:33;;;;;;;1.72;1.05;;;;;;;17.31;32.91;100717.30;1752603;81;21095;-58
2023/05/05 14:22:02;;;;;;;1.80;1.12;;;;;;;17.37;32.46;100716.36;1753069;82;21577;-58
2023/05/05 14:24:31;;;;;;;4.25;1.25;;;;;;;17.39;32.28;100721.13;1754102;81;21439;-55
2023/05/05 14:27:03;;;;;;;2.08;1.12;;;;;;;17.40;32.00;100724.20;1803571;79;21035;-56
2023/05/05 14:29:31;;;;;;;2.45;0.90;;;;;;;17.41;31.66;100715.35;1803304;79;21102;-57
2023/05/05 14:31:59;;;;;;;1.72;1.22;;;;;;;17.36;31.02;100717.98;1803359;79;21059;-57
2023/05/05 14:34:28;;;;;;;2.95;1.30;;;;;;;17.28;30.86;100719.16;1803354;79;21071;-56
2023/05/05 14:36:57;;;;;;;1.82;1.27;;;;;;;17.22;30.48;100706.78;1803702;79;21459;-56
2023/05/05 14:39:26;;;;;;;1.98;1.20;;;;;;;17.16;30.83;100700.25;1803458;79;21047;-57
2023/05/05 14:41:55;;;;;;;2.02;1.20;;;;;;;17.18;31.27;100706.94;1803421;79;21027;-61
2023/05/05 14:44:24;;;;;;;1.77;1.10;;;;;;;17.23;31.13;100705.16;1803513;79;21474;-58
2023/05/05 14:46:53;;;;;;;2.27;1.20;;;;;;;17.26;30.97;100706.08;1803513;79;21522;-56
2023/05/05 14:49:23;;;;;;;4.20;1.50;;;;;;;17.30;30.43;100700.38;1803485;79;21048;-57
2023/05/05 14:51:52;;;;;;;1.32;0.98;;;;;;;17.29;30.44;100700.08;1803598;79;21047;-56
2023/05/05 14:54:24;;;;;;;1.62;1.12;;;;;;;17.27;30.13;100690.31;1803370;79;21509;-58
2023/05/05 14:56:55;;;;;;;1.98;1.10;;;;;;;17.33;29.89;100692.98;1803519;79;21484;-58
2023/05/05 14:59:30;;;;;;;1.40;0.95;;;;;;;17.42;29.80;100700.42;1803232;79;21075;-57
2023/05/05 15:01:58;;;;;;;3.83;1.32;;;;;;;17.46;29.87;100699.41;1802208;79;21473;-57
2023/05/05 15:04:27;;;;;;;2.10;1.30;;;;;;;17.47;30.05;100694.17;1803444;79;21004;-54
2023/05/05 15:06:56;;;;;;;2.35;1.20;;;;;;;17.46;30.33;100697.48;1803369;79;21375;-56
2023/05/05 15:09:24;;;;;;;2.12;1.10;;;;;;;17.45;30.74;100701.34;1803283;79;21039;-57
2023/05/05 15:11:53;;;;;;;3.33;1.20;;;;;;;17.44;30.73;100710.73;1803642;79;21043;-54
2023/05/05 15:14:22;;;;;;;2.35;1.20;;;;;;;17.41;30.34;100701.50;1803640;79;21051;-56
2023/05/05 15:16:51;;;;;;;2.65;1.20;;;;;;;17.36;30.67;100711.91;1788026;79;21419;-55
2023/05/05 15:19:19;;;;;;;3.12;1.45;;;;;;;17.31;30.90;100712.30;1749830;81;21506;-56
2023/05/05 15:21:52;;;;;;;3.20;1.30;;;;;;;17.25;31.07;100705.77;1749608;80;21071;-55
2023/05/05 15:24:19;;;;;;;3.12;1.20;;;;;;;17.24;31.40;100707.39;1787353;80;21074;-56
2023/05/05 15:26:48;;;;;;;3.10;1.20;;;;;;;17.20;31.33;100706.17;1790562;80;20979;-57
2023/05/05 15:29:16;;;;;;;3.47;1.25;;;;;;;17.14;31.24;100703.80;1790259;80;21446;-57
2023/05/05 15:31:46;;;;;;;4.67;1.62;;;;;;;17.09;31.27;100707.27;1790243;80;21504;-57
2023/05/05 15:34:14;;;;;;;2.22;1.07;;;;;;;17.06;31.56;100707.73;1790217;80;21070;-56
2023/05/05 15:36:43;;;;;;;3.90;1.30;;;;;;;17.04;32.08;100710.43;1790437;80;21014;-58
2023/05/05 15:39:12;;;;;;;2.77;1.60;;;;;;;17.00;32.62;100707.28;1790300;80;21023;-58
2023/05/05 15:41:40;;;;;;;2.75;1.20;;;;;;;16.98;32.96;100709.44;1789867;80;21062;-55
2023/05/05 15:44:11;;;;;;;3.52;1.37;;;;;;;16.97;33.02;100706.36;1789876;80;21443;-58
2023/05/05 15:46:40;;;;;;;4.40;1.45;;;;;;;16.97;32.96;100704.13;1790040;80;21555;-58
2023/05/05 15:49:09;;;;;;;2.25;1.15;;;;;;;16.91;32.61;100704.52;1790132;80;21058;-58
2023/05/05 15:51:38;;;;;;;2.35;1.45;;;;;;;16.85;32.94;100711.48;1790211;80;21015;-57
2023/05/05 15:54:06;;;;;;;1.82;1.40;;;;;;;16.83;33.55;100715.03;1790317;80;21030;-56
2023/05/05 15:56:35;;;;;;;2.80;1.40;;;;;;;16.80;34.60;100707.50;1790463;80;21441;-56
2023/05/05 15:59:04;;;;;;;3.60;1.32;;;;;;;16.79;34.22;100708.57;1790017;80;21026;-57
2023/05/05 16:01:34;;;;;;;2.50;1.70;;;;;;;16.78;34.37;100705.50;1786138;80;21477;-56
2023/05/05 16:04:04;;;;;;;1.90;1.47;;;;;;;16.76;34.56;100706.27;1771964;80;21418;-57
2023/05/05 16:06:33;;;;;;;11.95;1.30;;;;;;;16.76;34.87;100707.65;1771870;80;21067;-56
2023/05/05 16:09:02;;;;;;;2.83;1.50;;;;;;;16.75;35.27;100712.03;1771916;81;21454;-57
2023/05/05 16:11:31;;;;;;;3.12;1.60;;;;;;;16.75;35.89;100717.03;1771625;81;21054;-56
2023/05/05 16:14:00;;;;;;;5.72;1.65;;;;;;;16.77;35.90;100714.87;1772011;81;21011;-56
2023/05/05 16:16:29;;;;;;;3.35;1.35;;;;;;;16.79;35.99;100714.11;1771875;80;21427;-56
2023/05/05 16:18:58;;;;;;;1.75;1.27;;;;;;;16.81;35.90;100713.88;1772011;80;21008;-56
2023/05/05 16:21:27;;;;;;;3.42;1.95;;;;;;;16.82;35.41;100721.64;1771750;81;21047;-57
2023/05/05 16:23:56;;;;;;;7.10;1.77;;;;;;;16.78;35.27;100718.48;1771808;80;21514;-56
2023/05/05 16:26:25;;;;;;;5.78;1.45;;;;;;;16.74;35.62;100716.72;1772014;81;21031;-57
2023/05/05 16:28:54;;;;;;;3.90;1.40;;;;;;;16.73;35.93;100723.33;1772094;80;21112;-56
2023/05/05 16:31:23;;;;;;;2.27;1.20;;;;;;;16.71;35.90;100721.33;1771806;80;21023;-57
2023/05/05 16:33:52;;;;;;;3.08;1.55;;;;;;;16.70;36.02;100724.33;1771983;80;21479;-57
2023/05/05 16:36:21;;;;;;;2.50;1.12;;;;;;;16.68;35.96;100723.17;1771869;80;21094;-56
2023/05/05 16:38:50;;;;;;;2.42;1.20;;;;;;;16.65;35.89;100728.29;1771999;80;21054;-56
2023/05/05 16:41:18;;;;;;;1.50;1.20;;;;;;;16.61;35.91;100729.29;1771945;81;21435;-55
2023/05/05 16:43:48;;;;;;;3.85;1.65;;;;;;;16.55;36.08;100734.36;1772103;81;21045;-54
2023/05/05 16:46:16;;;;;;;1.95;1.40;;;;;;;16.52;36.26;100729.81;1772009;81;21455;-55
2023/05/05 16:48:45;;;;;;;3.50;1.52;;;;;;;16.48;36.70;100734.42;1772015;81;21431;-56
2023/05/05 16:51:14;;;;;;;2.00;1.37;;;;;;;16.45;36.59;100729.34;1771804;80;21483;-57
2023/05/05 16:53:42;;;;;;;4.47;1.70;;;;;;;16.42;36.81;100736.72;1771829;81;21043;-57
2023/05/05 16:56:11;;;;;;;4.92;1.55;;;;;;;16.41;36.99;100738.33;1771931;80;21462;-56
2023/05/05 16:58:40;;;;;;;2.02;1.45;;;;;;;16.38;37.02;100742.94;1772081;80;21031;-56
2023/05/05 17:01:09;;;;;;;4.17;1.47;;;;;;;16.34;36.91;100743.92;1771896;81;21458;-56
2023/05/05 17:03:38;;;;;;;4.67;1.67;;;;;;;16.25;37.07;100743.03;1772011;80;21015;-57
2023/05/05 17:06:08;;;;;;;3.52;1.77;;;;;;;16.18;37.33;100750.84;1772162;81;20991;-55
2023/05/05 17:08:37;;;;;;;9.55;1.72;;;;;;;16.13;37.36;100752.59;1771913;81;21433;-55
2023/05/05 17:11:05;;;;;;;6.55;4.50;;;;;;;16.07;37.57;100750.20;1772033;81;21332;-56
2023/05/05 17:13:35;;;;;;;3.58;2.00;;;;;;;16.04;37.89;100756.17;1771979;81;20988;-56
2023/05/05 17:16:04;;;;;;;2.40;1.70;;;;;;;15.99;37.76;100751.86;1771724;81;21007;-57
2023/05/05 17:18:33;;;;;;;2.50;1.62;;;;;;;15.94;37.82;100764.12;1771883;81;21023;-58
2023/05/05 17:21:02;;;;;;;2.95;1.65;;;;;;;15.88;37.97;100756.73;1771864;81;20987;-56
2023/05/05 17:23:31;;;;;;;2.98;1.65;;;;;;;15.83;38.02;100760.70;1771931;81;22049;-56
2023/05/05 17:26:01;;;;;;;2.35;1.65;;;;;;;15.77;37.95;100761.05;1771857;81;21051;-57
2023/05/05 17:28:31;;;;;;;3.02;1.60;;;;;;;15.71;38.00;100759.19;1771717;81;21430;-54
2023/05/05 17:31:00;;;;;;;5.15;2.30;;;;;;;15.67;38.11;100764.00;1771827;80;20991;-56
2023/05/05 17:33:29;;;;;;;5.78;2.10;;;;;;;15.62;38.22;100763.28;1771677;81;21063;-58
2023/05/05 17:35:58;;;;;;;2.50;1.80;;;;;;;15.60;38.35;100763.16;1771929;81;21403;-56
2023/05/05 17:38:27;;;;;;;6.05;2.12;;;;;;;15.56;38.32;100765.48;1771789;81;21403;-57
2023/05/05 17:40:56;;;;;;;2.92;1.82;;;;;;;15.52;38.56;100776.66;1771697;81;21485;-55
2023/05/05 17:43:25;;;;;;;4.78;1.90;;;;;;;15.47;38.79;100770.42;1772067;81;21035;-56
2023/05/05 17:45:54;;;;;;;3.70;2.00;;;;;;;15.45;38.78;100772.56;1772020;81;21423;-56
2023/05/05 17:48:23;;;;;;;6.87;2.02;;;;;;;15.41;39.00;100770.45;1771818;81;21473;-55
2023/05/05 17:50:52;;;;;;;5.67;2.27;;;;;;;15.40;39.09;100773.75;1744068;81;21029;-56
2023/05/05 17:53:21;;;;;;;6.10;2.20;;;;;;;15.38;39.05;100771.74;1772036;81;20995;-56
2023/05/05 17:55:50;;;;;;;10.40;2.33;;;;;;;15.34;39.16;100773.25;1771961;81;20992;-57
2023/05/05 17:58:19;;;;;;;5.67;2.00;;;;;;;15.30;39.23;100778.05;1771987;81;21047;-56
2023/05/05 18:00:48;;;;;;;4.17;1.72;;;;;;;15.28;39.36;100779.66;1772056;81;21434;-59
2023/05/05 18:03:17;;;;;;;3.12;1.72;;;;;;;15.23;39.44;100776.17;1771791;80;21424;-57
2023/05/05 18:05:46;;;;;;;4.65;1.85;;;;;;;15.20;39.47;100777.14;1771478;81;20952;-56
2023/05/05 18:08:16;;;;;;;3.70;1.72;;;;;;;15.16;39.44;100783.63;1771543;81;21390;-56
2023/05/05 18:10:44;;;;;;;5.12;2.20;;;;;;;15.13;39.57;100783.22;1771886;81;21026;-56
2023/05/05 18:13:13;;;;;;;4.40;1.80;;;;;;;15.10;39.58;100788.64;1771876;81;21415;-54
2023/05/05 18:15:43;;;;;;;4.28;2.08;;;;;;;15.07;39.71;100789.61;1772026;81;21328;-56
2023/05/05 18:18:13;;;;;;;3.25;1.70;;;;;;;15.04;39.85;100790.05;1771810;81;21039;-56
2023/05/05 18:20:42;;;;;;;3.22;1.85;;;;;;;15.02;39.96;100803.22;1771789;81;21431;-56
2023/05/05 18:23:11;;;;;;;3.95;2.08;;;;;;;14.98;40.13;100797.28;1771952;81;21012;-58
2023/05/05 18:25:40;;;;;;;5.15;2.37;;;;;;;14.94;40.19;100800.66;1771799;81;21007;-56
2023/05/05 18:28:10;;;;;;;4.25;2.10;;;;;;;14.89;40.41;100803.54;1772123;81;20999;-57
2023/05/05 18:30:38;;;;;;;2.87;2.15;;;;;;;14.83;40.50;100804.41;1771922;81;20991;-57
2023/05/05 18:33:08;;;;;;;3.92;2.20;;;;;;;14.80;40.88;100809.50;1771704;81;21015;-56
2023/05/05 18:35:37;;;;;;;3.22;1.57;;;;;;;14.76;40.80;100805.48;1771812;81;20983;-57
2023/05/05 18:38:05;;;;;;;4.75;2.00;;;;;;;14.74;40.94;100802.94;1771669;81;21050;-56
2023/05/05 18:40:34;;;;;;;8.35;2.20;;;;;;;14.72;41.02;100803.69;1771851;81;21016;-57
2023/05/05 18:43:03;;;;;;;4.08;2.00;;;;;;;14.74;41.12;100808.45;1771792;81;21050;-57
2023/05/05 18:45:32;;;;;;;4.17;2.10;;;;;;;14.69;41.23;100811.01;1771642;81;21497;-57
2023/05/05 18:48:01;;;;;;;3.40;2.10;;;;;;;14.63;41.20;100811.02;1771833;81;21019;-57
2023/05/05 18:50:32;;;;;;;5.30;2.50;;;;;;;14.59;41.07;100812.83;1771921;81;21387;-56
2023/05/05 18:53:01;;;;;;;4.72;2.40;;;;;;;14.57;41.00;100809.97;1771954;81;21391;-56
2023/05/05 18:55:29;;;;;;;3.58;2.27;;;;;;;14.55;40.92;100810.71;1771659;81;21090;-57
2023/05/05 18:57:58;;;;;;;5.15;2.55;;;;;;;14.53;40.89;100810.92;1771753;80;21030;-56
2023/05/05 19:00:26;;;;;;;6.87;2.70;;;;;;;14.49;40.96;100811.04;1771423;81;21011;-56
2023/05/05 19:02:55;;;;;;;6.62;2.33;;;;;;;14.49;41.12;100812.42;1775483;80;20998;-56
2023/05/05 19:05:24;;;;;;;3.25;2.00;;;;;;;14.47;41.29;100810.41;1781361;80;21390;-56
2023/05/05 19:07:53;;;;;;;4.95;2.10;;;;;;;14.46;41.64;100821.64;1781630;80;21451;-55
2023/05/05 19:10:22;;;;;;;3.77;1.72;;;;;;;14.44;41.81;100815.49;1781360;80;21394;-56
2023/05/05 19:12:50;;;;;;;2.92;1.70;;;;;;;14.39;42.07;100813.88;1781416;80;21038;-56
2023/05/05 19:15:19;;;;;;;3.33;1.85;;;;;;;14.35;42.17;100817.59;1781454;80;21402;-57
2023/05/05 19:17:48;;;;;;;4.83;1.85;;;;;;;14.29;42.37;100815.11;1781505;80;20998;-56
2023/05/05 19:20:17;;;;;;;3.55;1.77;;;;;;;14.25;42.58;100817.98;1781409;80;21390;-56
2023/05/05 19:22:46;;;;;;;4.67;2.25;;;;;;;14.22;42.73;100828.58;1781635;80;21058;-55
2023/05/05 19:25:15;;;;;;;3.15;1.82;;;;;;;14.19;42.99;100825.71;1781527;80;21410;-57
2023/05/05 19:27:43;;;;;;;3.87;1.80;;;;;;;14.18;43.04;100825.92;1781524;80;20955;-56
2023/05/05 19:30:14;;;;;;;3.70;1.65;;;;;;;14.13;43.11;100825.70;1781581;80;20982;-56
2023/05/05 19:32:44;;;;;;;3.92;1.90;;;;;;;14.10;43.21;100820.63;1781777;80;21227;-54
2023/05/05 19:35:13;;;;;;;2.40;1.47;;;;;;;14.08;43.33;100826.87;1781431;80;21050;-56
2023/05/05 19:37:42;;;;;;;3.58;1.87;;;;;;;14.07;43.30;100823.27;1781459;80;21595;-56